메인 페이지
METAR-TAF:

METAR-TAF

공항 :

레이캬비크, 아이슬란드

위도: 64-08N, 경도: 021-54W, 고도: 54m

현재 날씨관측

예보는 14분 전, 23:00시(UTC)에 발표되었습니다.
남동20kt
온도 7°C
습도 66%
기압 991 hPa
시정 10km 이상
고도 2900ft 상공 구름 조금
고도 3600ft 상공 구름 많음
고도 4500ft 상공 구름 많음

METAR: BIRK 232300Z 14020KT 9999 FEW029 BKN036 BKN045 07/01 Q0991

시각: 23:14 (23:14 UTC)

예보

예보는 3 시간 15분 전, 19:59시(UTC)에 발표되었습니다.
예보 대상 시간: 23일 21시부터 24일 21시까지 (UTC)
25kt, 순간 최대 풍속 38kt
시정 10km 이상
고도 2300ft 상공 구름 조금
고도 3000ft 상공 구름 보통
고도 3600ft 상공 구름 많음
약한소나기
전환 중
23일 23시부터 24일 01시까지 (UTC)
18kt, 순간 최대 풍속 28kt
전환 중
24일 06시부터 24일 09시까지 (UTC)
남남동12kt
전환 중
24일 10시부터 24일 12시까지 (UTC)
여러 방향의 바람 2kt
시정: 5000m
고도 1000ft 상공 흐림
비, 이슬비
전환 중
24일 17시부터 24일 20시까지 (UTC)
15kt

TAF: BIRK 231959Z 2321/2421 10025G38KT 9999 -SHRA FEW023 SCT030 BKN036 TX10/2321Z TN05/2406Z BECMG 2323/2401 17018G28KT BECMG 2406/2409 15012KT BECMG 2410/2412 VRB02KT 5000 RADZ OVC010 BECMG 2417/2420 10015KT

4,000개 이상의 공항 관측 자료 및 예보 (METAR 및 TAF 보고).

지도상에서 검색 가능한 기상관측소가 노란 점과 빨간 점으로 표시되어 있습니다.

기상관측소 명을 보려면 표시 위로 마우스를 이동하세요.

날씨 관측과 예보를 보려면 클릭하세요.

지도 변경 : 확대하려면 엑스 표시가 있는 녹색 버튼, 축소하려면 빼기 표시가 있는 녹색 버튼, 다음 페이지의 지도를 보려면 녹색 화살표를 클릭하세요.


METAR-TAF: